createdAt,value
2016-05-03T00:00:04.271Z,69.5
2016-05-03T00:00:14.130Z,69
2016-05-03T00:00:24.290Z,68.9
2016-05-03T00:00:34.305Z,68.9
2016-05-03T00:00:44.133Z,69
2016-05-03T00:00:54.149Z,68.9
2016-05-03T00:01:04.290Z,68.9
2016-05-03T00:01:14.290Z,69.1
2016-05-03T00:01:24.152Z,69.5
2016-05-03T00:01:34.308Z,69.7
2016-05-03T00:01:44.152Z,69.4
2016-05-03T00:01:54.308Z,69.5
2016-05-03T00:02:04.168Z,69.3
2016-05-03T00:02:14.324Z,69.3
2016-05-03T00:02:24.310Z,69.3
2016-05-03T00:02:34.341Z,69.3
2016-05-03T00:02:44.326Z,69.3
2016-05-03T00:02:54.170Z,69.4
2016-05-03T00:03:04.326Z,69.5
2016-05-03T00:03:14.326Z,69.3
2016-05-03T00:03:24.344Z,69.4
2016-05-03T00:03:34.329Z,69.5
2016-05-03T00:03:44.188Z,69.6
2016-05-03T00:03:54.344Z,69.6
2016-05-03T00:04:04.344Z,69.4
2016-05-03T00:04:14.219Z,69.1
2016-05-03T00:04:24.207Z,69
2016-05-03T00:04:34.363Z,69.1
2016-05-03T00:04:44.363Z,68.6
2016-05-03T00:04:54.207Z,68.7
2016-05-03T00:05:04.363Z,68.5
2016-05-03T00:05:14.363Z,68.1
2016-05-03T00:05:24.366Z,68.5
2016-05-03T00:05:34.210Z,68.2
2016-05-03T00:05:44.382Z,68.3
2016-05-03T00:05:54.225Z,68
2016-05-03T00:06:04.382Z,68
2016-05-03T00:06:14.382Z,67.8
2016-05-03T00:06:24.384Z,68.4
2016-05-03T00:06:34.227Z,68.1
2016-05-03T00:06:44.384Z,68.5
2016-05-03T00:06:54.477Z,68.5
2016-05-03T00:07:04.399Z,68.9
2016-05-03T00:07:14.556Z,68.5
2016-05-03T00:07:24.527Z,68.5
2016-05-03T00:07:34.574Z,68.5
2016-05-03T00:07:44.402Z,68.3
2016-05-03T00:07:54.418Z,68.4
2016-05-03T00:08:04.246Z,68.5
2016-05-03T00:08:14.418Z,68.4
2016-05-03T00:08:24.420Z,68.9
2016-05-03T00:08:34.279Z,68.5
2016-05-03T00:08:44.420Z,69.2
2016-05-03T00:08:54.420Z,68.8
2016-05-03T00:09:04.420Z,68.9
2016-05-03T00:09:14.264Z,69.2
2016-05-03T00:09:24.268Z,69
2016-05-03T00:09:34.424Z,69.8
2016-05-03T00:09:44.424Z,69.7
2016-05-03T00:09:54.283Z,69.6
2016-05-03T00:10:04.440Z,69.7
2016-05-03T00:10:14.283Z,69.3
2016-05-03T00:10:24.442Z,69.4
2016-05-03T00:10:34.301Z,69.4
2016-05-03T00:10:44.457Z,69.7
2016-05-03T00:10:54.442Z,69.4
2016-05-03T00:11:04.457Z,69.8
2016-05-03T00:11:14.442Z,68.9
2016-05-03T00:11:24.445Z,69.1
2016-05-03T00:11:34.460Z,69.3
2016-05-03T00:11:44.460Z,69.2
2016-05-03T00:11:54.304Z,69
2016-05-03T00:12:04.476Z,69.6
2016-05-03T00:12:14.320Z,69.6
2016-05-03T00:12:24.479Z,69.3
2016-05-03T00:12:34.479Z,69.3
2016-05-03T00:12:44.479Z,69.6
2016-05-03T00:12:54.479Z,70.2
2016-05-03T00:13:04.338Z,69.8
2016-05-03T00:13:14.479Z,69.5
2016-05-03T00:13:24.481Z,69.4
2016-05-03T00:13:34.496Z,69.4
2016-05-03T00:13:44.496Z,69.7
2016-05-03T00:13:54.356Z,69.5
2016-05-03T00:14:04.496Z,69.1
2016-05-03T00:14:14.496Z,69.5
2016-05-03T00:14:24.359Z,69.4
2016-05-03T00:14:34.359Z,69.8
2016-05-03T00:14:44.359Z,69.8
2016-05-03T00:14:54.499Z,69.8
2016-05-03T00:15:04.515Z,69.6
2016-05-03T00:15:14.359Z,69.3
2016-05-03T00:15:24.377Z,69.6
2016-05-03T00:15:34.518Z,70.1
2016-05-03T00:15:44.518Z,69.8
2016-05-03T00:15:54.534Z,69.7
2016-05-03T00:16:04.534Z,70.1
2016-05-03T00:16:14.534Z,70.1
2016-05-03T00:16:24.395Z,70.1
2016-05-03T00:16:34.551Z,70.4
2016-05-03T00:16:44.379Z,70.2
2016-05-03T00:16:54.536Z,70.7
2016-05-03T00:17:04.395Z,70.3
2016-05-03T00:17:14.551Z,70.3
2016-05-03T00:17:24.398Z,70.3
2016-05-03T00:17:34.570Z,71.1
2016-05-03T00:17:44.398Z,71
2016-05-03T00:17:54.554Z,70.8
2016-05-03T00:18:04.554Z,70.8
2016-05-03T00:18:14.554Z,70.8
2016-05-03T00:18:24.557Z,70.8
2016-05-03T00:18:34.573Z,70.9
2016-05-03T00:18:44.417Z,71.1
2016-05-03T00:18:54.417Z,71.1
2016-05-03T00:19:04.573Z,71
2016-05-03T00:19:14.589Z,70.8
2016-05-03T00:19:24.576Z,70.8
2016-05-03T00:19:34.435Z,70.7
2016-05-03T00:19:44.592Z,70.8
2016-05-03T00:19:54.435Z,70.8
2016-05-03T00:20:04.592Z,71.1
2016-05-03T00:20:14.435Z,71.1
2016-05-03T00:20:24.594Z,71
2016-05-03T00:20:34.609Z,71.1
2016-05-03T00:20:44.453Z,71.1
2016-05-03T00:20:54.453Z,71
2016-05-03T00:21:04.594Z,70.9
2016-05-03T00:21:14.594Z,70.8
2016-05-03T00:21:24.469Z,71.4
2016-05-03T00:21:34.612Z,71.2
2016-05-03T00:21:44.612Z,71.3
2016-05-03T00:21:54.472Z,70.9
2016-05-03T00:22:05.081Z,71.5
2016-05-03T00:22:14.628Z,71.6
2016-05-03T00:22:24.722Z,72
2016-05-03T00:22:34.631Z,72.1
2016-05-03T00:22:44.631Z,72.1
2016-05-03T00:22:54.646Z,72.1
2016-05-03T00:23:04.490Z,71.9
2016-05-03T00:23:14.490Z,71.9
2016-05-03T00:23:24.678Z,71.6
2016-05-03T00:23:34.648Z,71.7
2016-05-03T00:23:44.648Z,71.7
2016-05-03T00:23:54.648Z,71.7
2016-05-03T00:24:04.648Z,71.5
2016-05-03T00:24:14.648Z,71.5
2016-05-03T00:24:24.664Z,71.5
2016-05-03T00:24:34.667Z,71.7
2016-05-03T00:24:44.667Z,71.9
2016-05-03T00:24:54.683Z,71.7
2016-05-03T00:25:04.683Z,71.5
2016-05-03T00:25:14.762Z,71.7
2016-05-03T00:25:24.668Z,71.6
2016-05-03T00:25:34.753Z,71.9
2016-05-03T00:25:44.706Z,71.6
2016-05-03T00:25:54.731Z,71.7
2016-05-03T00:26:04.762Z,71.7
2016-05-03T00:26:14.871Z,71.8
2016-05-03T00:26:24.718Z,71.8
2016-05-03T00:26:34.690Z,71.6
2016-05-03T00:26:44.705Z,71.5
2016-05-03T00:26:54.549Z,71.5
2016-05-03T00:27:04.705Z,71.5
2016-05-03T00:27:14.705Z,71.5
2016-05-03T00:27:24.549Z,72
2016-05-03T00:27:34.708Z,71.9
2016-05-03T00:27:44.837Z,72
2016-05-03T00:27:54.868Z,71.8
2016-05-03T00:28:04.736Z,71.9
2016-05-03T00:28:14.812Z,72.2
2016-05-03T00:28:24.769Z,71.9
2016-05-03T00:28:35.350Z,71.5
2016-05-03T00:28:44.912Z,72
2016-05-03T00:28:54.819Z,71.8
2016-05-03T00:29:04.725Z,71.9
2016-05-03T00:29:14.756Z,72.2
2016-05-03T00:29:24.741Z,72.2
2016-05-03T00:29:34.743Z,72.2
2016-05-03T00:29:44.586Z,72.3
2016-05-03T00:29:54.638Z,72.1
2016-05-03T00:30:04.794Z,72.2
2016-05-03T00:30:14.748Z,71.9
2016-05-03T00:30:24.763Z,72
2016-05-03T00:30:34.765Z,71.9
2016-05-03T00:30:44.750Z,71.6
2016-05-03T00:30:54.765Z,71.7
2016-05-03T00:31:04.765Z,71.4
2016-05-03T00:31:14.609Z,71.7
2016-05-03T00:31:24.781Z,72.2
2016-05-03T00:31:34.785Z,72.1
2016-05-03T00:31:44.785Z,72
2016-05-03T00:31:54.785Z,71.9
2016-05-03T00:32:04.800Z,72
2016-05-03T00:32:14.785Z,72
2016-05-03T00:32:24.785Z,72
2016-05-03T00:32:34.788Z,72.2
2016-05-03T00:32:44.632Z,72.3
2016-05-03T00:32:54.803Z,72
2016-05-03T00:33:04.850Z,71.8
2016-05-03T00:33:14.819Z,72.3
2016-05-03T00:33:24.803Z,72.2
2016-05-03T00:33:34.805Z,72.3
2016-05-03T00:33:44.805Z,72.3
2016-05-03T00:33:54.665Z,72.3
2016-05-03T00:34:04.805Z,72.4
2016-05-03T00:34:14.805Z,72.4
2016-05-03T00:34:24.805Z,72.3
2016-05-03T00:34:34.807Z,72.3
2016-05-03T00:34:44.807Z,72.4
2016-05-03T00:34:54.823Z,72.1
2016-05-03T00:35:04.823Z,72.3
2016-05-03T00:35:14.839Z,72
2016-05-03T00:35:24.839Z,71.7
2016-05-03T00:35:34.827Z,71.7
2016-05-03T00:35:44.671Z,71.7
2016-05-03T00:35:54.843Z,71.9
2016-05-03T00:36:04.843Z,71.6
2016-05-03T00:36:14.686Z,71.8
2016-05-03T00:36:24.702Z,72.3
2016-05-03T00:36:34.845Z,72
2016-05-03T00:36:44.845Z,71.7
2016-05-03T00:36:55.470Z,72.2
2016-05-03T00:37:04.720Z,72.3
2016-05-03T00:37:15.220Z,72.5
2016-05-03T00:37:25.595Z,72.6
2016-05-03T00:37:34.726Z,72.7
2016-05-03T00:37:44.851Z,72.6
2016-05-03T00:37:54.710Z,72.8
2016-05-03T00:38:04.866Z,72.6
2016-05-03T00:38:14.897Z,72.5
2016-05-03T00:38:24.866Z,72.8
2016-05-03T00:38:34.916Z,72.6
2016-05-03T00:38:44.869Z,72.4
2016-05-03T00:38:54.729Z,72.4
2016-05-03T00:39:04.885Z,72.4
2016-05-03T00:39:14.900Z,72.7
2016-05-03T00:39:24.916Z,72.9
2016-05-03T00:39:34.902Z,73.2
2016-05-03T00:39:44.918Z,72.9
2016-05-03T00:39:54.902Z,72.7
2016-05-03T00:40:04.918Z,73.2
2016-05-03T00:40:14.918Z,73.5
2016-05-03T00:40:24.746Z,73.5
2016-05-03T00:40:34.921Z,73.7
2016-05-03T00:40:44.905Z,73.5
2016-05-03T00:40:54.905Z,73.4
2016-05-03T00:41:04.921Z,73.5
2016-05-03T00:41:14.780Z,73.4
2016-05-03T00:41:24.921Z,73.5
2016-05-03T00:41:34.923Z,74.1
2016-05-03T00:41:44.798Z,74
2016-05-03T00:41:54.939Z,73.8
2016-05-03T00:42:04.939Z,74
2016-05-03T00:42:14.923Z,73.9
2016-05-03T00:42:24.939Z,73.7
2016-05-03T00:42:34.802Z,73.8
2016-05-03T00:42:44.943Z,73.8
2016-05-03T00:42:54.786Z,73.8
2016-05-03T00:43:04.958Z,73.8
2016-05-03T00:43:14.958Z,73.9
2016-05-03T00:43:24.958Z,74.1
2016-05-03T00:43:34.976Z,74
2016-05-03T00:43:44.960Z,74.1
2016-05-03T00:43:54.976Z,74
2016-05-03T00:44:04.976Z,74.1
2016-05-03T00:44:14.945Z,74
2016-05-03T00:44:24.960Z,74.1
2016-05-03T00:44:34.823Z,74
2016-05-03T00:44:44.963Z,74.2
2016-05-03T00:44:54.979Z,74
2016-05-03T00:45:04.838Z,73.9
2016-05-03T00:45:14.854Z,74.3
2016-05-03T00:45:24.979Z,74.1
2016-05-03T00:45:34.997Z,74.2
2016-05-03T00:45:44.997Z,74.1
2016-05-03T00:45:54.840Z,74.3
2016-05-03T00:46:04.997Z,74.2
2016-05-03T00:46:14.840Z,74.4
2016-05-03T00:46:24.997Z,74.5
2016-05-03T00:46:35.015Z,74
2016-05-03T00:46:45.000Z,74.1
2016-05-03T00:46:55.000Z,74.2
2016-05-03T00:47:05.000Z,74.2
2016-05-03T00:47:15.015Z,74.4
2016-05-03T00:47:24.859Z,74.5
2016-05-03T00:47:35.018Z,74.2
2016-05-03T00:47:45.018Z,74.5
2016-05-03T00:47:55.018Z,74.4
2016-05-03T00:48:04.862Z,74.7
2016-05-03T00:48:15.018Z,74.5
2016-05-03T00:48:25.034Z,74.5
2016-05-03T00:48:34.881Z,74.5
2016-05-03T00:48:45.037Z,74.3
2016-05-03T00:48:54.881Z,74.5
2016-05-03T00:49:05.037Z,74.5
2016-05-03T00:49:14.881Z,75
2016-05-03T00:49:25.037Z,75.2
2016-05-03T00:49:35.039Z,74.8
2016-05-03T00:49:45.070Z,75
2016-05-03T00:49:55.054Z,74.9
2016-05-03T00:50:05.054Z,74.6
2016-05-03T00:50:15.054Z,74.6
2016-05-03T00:50:25.054Z,74.8
2016-05-03T00:50:34.901Z,75.2
2016-05-03T00:50:45.057Z,75
2016-05-03T00:50:54.917Z,75.1
2016-05-03T00:51:04.917Z,75.2
2016-05-03T00:51:15.073Z,75.2
2016-05-03T00:51:25.073Z,75.3
2016-05-03T00:51:34.920Z,75.4
2016-05-03T00:51:45.076Z,75.4
2016-05-03T00:51:54.935Z,75.4
2016-05-03T00:52:05.654Z,75.3
2016-05-03T00:52:15.264Z,75.3
2016-05-03T00:52:26.014Z,75.3
2016-05-03T00:52:35.094Z,75.5
2016-05-03T00:52:45.125Z,75.8
2016-05-03T00:52:54.937Z,75.8
2016-05-03T00:53:05.109Z,75.9
2016-05-03T00:53:14.953Z,75.7
2016-05-03T00:53:25.109Z,75.6
2016-05-03T00:53:35.112Z,75.6
2016-05-03T00:53:44.956Z,75.7
2016-05-03T00:53:54.956Z,75.5
2016-05-03T00:54:04.956Z,75.5
2016-05-03T00:54:15.112Z,75.5
2016-05-03T00:54:25.128Z,75.8
2016-05-03T00:54:35.131Z,75.6
2016-05-03T00:54:45.131Z,76
2016-05-03T00:54:55.131Z,76
2016-05-03T00:55:04.975Z,76.1
2016-05-03T00:55:15.131Z,76.2
2016-05-03T00:55:25.131Z,76.1
2016-05-03T00:55:34.992Z,75.9
2016-05-03T00:55:44.992Z,75.8
2016-05-03T00:55:55.149Z,76
2016-05-03T00:56:05.149Z,76.1
2016-05-03T00:56:15.149Z,76.3
2016-05-03T00:56:24.992Z,76.3
2016-05-03T00:56:35.167Z,76.4
2016-05-03T00:56:45.152Z,76.3
2016-05-03T00:56:54.995Z,76.5
2016-05-03T00:57:05.167Z,76.9
2016-05-03T00:57:15.011Z,76.7
2016-05-03T00:57:25.167Z,76.6
2016-05-03T00:57:35.170Z,76.6
2016-05-03T00:57:45.170Z,76.5
2016-05-03T00:57:55.170Z,76.5
2016-05-03T00:58:05.186Z,76.6
2016-05-03T00:58:15.186Z,76.3
2016-05-03T00:58:25.186Z,76.3
2016-05-03T00:58:35.188Z,76.5
2016-05-03T00:58:45.032Z,76.4
2016-05-03T00:58:55.188Z,76.5
2016-05-03T00:59:05.188Z,76.3
2016-05-03T00:59:15.188Z,76.6
2016-05-03T00:59:25.203Z,76.9
2016-05-03T00:59:35.206Z,77
2016-05-03T00:59:45.050Z,77
2016-05-03T00:59:55.206Z,77.4
2016-05-03T01:00:05.066Z,77.2
2016-05-03T01:00:15.222Z,77
2016-05-03T01:00:25.222Z,77.2
2016-05-03T01:00:35.225Z,77.2
2016-05-03T01:00:45.225Z,77.3
2016-05-03T01:00:55.225Z,77.2
2016-05-03T01:01:05.225Z,77.3
2016-05-03T01:01:15.225Z,77.2
2016-05-03T01:01:25.225Z,77.4
2016-05-03T01:01:35.227Z,77.5
2016-05-03T01:01:45.086Z,77.3
2016-05-03T01:01:55.086Z,77.3
2016-05-03T01:02:05.086Z,77.7
2016-05-03T01:02:15.243Z,77.4
2016-05-03T01:02:25.086Z,77.4
2016-05-03T01:02:35.231Z,77.3
2016-05-03T01:02:45.247Z,77.5
2016-05-03T01:02:55.247Z,77.5
2016-05-03T01:03:05.247Z,77.4
2016-05-03T01:03:15.278Z,77.5
2016-05-03T01:03:25.294Z,77.4
2016-05-03T01:03:35.280Z,77.5
2016-05-03T01:03:45.358Z,77.2
2016-05-03T01:03:55.280Z,77.3
2016-05-03T01:04:05.264Z,77.4
2016-05-03T01:04:15.124Z,77.3
2016-05-03T01:04:25.124Z,77.7
2016-05-03T01:04:35.282Z,77.5
2016-05-03T01:04:45.282Z,78
2016-05-03T01:04:55.126Z,77.6
2016-05-03T01:05:05.141Z,77.6
2016-05-03T01:05:15.298Z,77.8
2016-05-03T01:05:25.141Z,77.6
2016-05-03T01:05:35.302Z,77.6
2016-05-03T01:05:45.130Z,77.7
2016-05-03T01:05:55.302Z,77.8
2016-05-03T01:06:05.302Z,77.6
2016-05-03T01:06:15.302Z,77.9
2016-05-03T01:06:25.145Z,77.6
2016-05-03T01:06:35.304Z,77.8
2016-05-03T01:06:45.319Z,77.9
2016-05-03T01:06:55.538Z,78
2016-05-03T01:07:06.054Z,77.8
2016-05-03T01:07:15.335Z,77.9
2016-05-03T01:07:25.319Z,77.8
2016-05-03T01:07:35.807Z,77.8
2016-05-03T01:07:45.322Z,77.7
2016-05-03T01:07:55.322Z,77.6
2016-05-03T01:08:05.338Z,77.6
2016-05-03T01:08:15.353Z,77.6
2016-05-03T01:08:25.182Z,77.7
2016-05-03T01:08:35.340Z,77.8
2016-05-03T01:08:45.340Z,77.9
2016-05-03T01:08:55.184Z,77.9
2016-05-03T01:09:05.340Z,77.5
2016-05-03T01:09:15.199Z,77.8
2016-05-03T01:09:25.355Z,77.9
2016-05-03T01:09:35.203Z,77.8
2016-05-03T01:09:45.359Z,77.7
2016-05-03T01:09:55.359Z,78
2016-05-03T01:10:05.375Z,77.9
2016-05-03T01:10:15.375Z,78.1
2016-05-03T01:10:25.359Z,78.1
2016-05-03T01:10:35.360Z,78.1
2016-05-03T01:10:45.376Z,77.9
2016-05-03T01:10:55.376Z,78
2016-05-03T01:11:05.079Z,78.5
2016-05-03T01:11:15.392Z,78.4
2016-05-03T01:11:25.220Z,78.4
2016-05-03T01:11:35.380Z,78.4
2016-05-03T01:11:45.396Z,78.5
2016-05-03T01:11:55.239Z,78.3
2016-05-03T01:12:05.239Z,78
2016-05-03T01:12:15.239Z,78.2
2016-05-03T01:12:25.396Z,78.2
2016-05-03T01:12:35.398Z,78.7
2016-05-03T01:12:45.398Z,78.7
2016-05-03T01:12:55.413Z,78.1
2016-05-03T01:13:05.398Z,78.1
2016-05-03T01:13:15.398Z,78.1
2016-05-03T01:13:25.413Z,78.1
2016-05-03T01:13:35.415Z,78.4
2016-05-03T01:13:45.415Z,78.8
2016-05-03T01:13:55.415Z,78.6
2016-05-03T01:14:05.431Z,78.3
2016-05-03T01:14:15.290Z,78.5
2016-05-03T01:14:25.431Z,78.5
2016-05-03T01:14:35.279Z,78.4
2016-05-03T01:14:45.435Z,78.5
2016-05-03T01:14:55.451Z,78.2
2016-05-03T01:15:05.435Z,78.3
2016-05-03T01:15:15.435Z,78.2
2016-05-03T01:15:25.451Z,78.4
2016-05-03T01:15:35.453Z,78.6
2016-05-03T01:15:45.296Z,78.5
2016-05-03T01:15:55.437Z,78.4
2016-05-03T01:16:05.453Z,78.4
2016-05-03T01:16:15.453Z,78.5
2016-05-03T01:16:25.453Z,78.5
2016-05-03T01:16:35.471Z,78.4
2016-05-03T01:16:45.456Z,78.5
2016-05-03T01:16:55.471Z,78.5
2016-05-03T01:17:05.471Z,78.2
2016-05-03T01:17:15.471Z,78.4
2016-05-03T01:17:25.471Z,78.3
2016-05-03T01:17:35.473Z,78.5
2016-05-03T01:17:45.489Z,78.6
2016-05-03T01:17:55.489Z,78.5
2016-05-03T01:18:05.489Z,78.5
2016-05-03T01:18:15.489Z,78.3
2016-05-03T01:18:25.489Z,78.5
2016-05-03T01:18:35.493Z,78.5
2016-05-03T01:18:45.337Z,78.5
2016-05-03T01:18:55.493Z,78.3
2016-05-03T01:19:05.493Z,78.6
2016-05-03T01:19:15.508Z,78.8
2016-05-03T01:19:25.493Z,78.5
2016-05-03T01:19:35.510Z,78.7
2016-05-03T01:19:45.510Z,78.6
2016-05-03T01:19:55.542Z,78.8
2016-05-03T01:20:05.354Z,78.5
2016-05-03T01:20:15.510Z,78.4
2016-05-03T01:20:25.526Z,78.4
2016-05-03T01:20:35.529Z,78.6
2016-05-03T01:20:45.529Z,78.7
2016-05-03T01:20:55.373Z,78.4
2016-05-03T01:21:05.545Z,78.3
2016-05-03T01:21:15.529Z,78.5
2016-05-03T01:21:25.529Z,78.3
2016-05-03T01:21:35.373Z,78.3
2016-05-03T01:21:45.531Z,78.5
2016-05-03T01:21:55.422Z,78.3
2016-05-03T01:22:05.547Z,78.7
2016-05-03T01:22:15.234Z,78.7
2016-05-03T01:22:26.344Z,78.6
2016-05-03T01:22:35.422Z,78.7
2016-05-03T01:22:45.565Z,78.8
2016-05-03T01:22:55.409Z,79.1
2016-05-03T01:23:05.565Z,79
2016-05-03T01:23:15.565Z,79
2016-05-03T01:23:25.550Z,79
2016-05-03T01:23:35.565Z,79
2016-05-03T01:23:45.568Z,79
2016-05-03T01:23:55.568Z,78.9
2016-05-03T01:24:05.600Z,78.8
2016-05-03T01:24:15.584Z,78.8
2016-05-03T01:24:25.600Z,78.9
2016-05-03T01:24:35.584Z,79
2016-05-03T01:24:45.587Z,78.6
2016-05-03T01:24:55.587Z,78.8
2016-05-03T01:25:05.603Z,78.8
2016-05-03T01:25:15.587Z,78.8
2016-05-03T01:25:25.462Z,78.8
2016-05-03T01:25:35.603Z,79
2016-05-03T01:25:45.605Z,79.4
2016-05-03T01:25:55.605Z,79.3
2016-05-03T01:26:05.620Z,79.1
2016-05-03T01:26:15.605Z,79
2016-05-03T01:26:25.620Z,79
2016-05-03T01:26:35.605Z,79.1
2016-05-03T01:26:45.623Z,79
2016-05-03T01:26:55.467Z,79.4
2016-05-03T01:27:05.623Z,79
2016-05-03T01:27:15.623Z,79
2016-05-03T01:27:25.623Z,79
2016-05-03T01:27:35.514Z,79.3
2016-05-03T01:27:45.626Z,79.4
2016-05-03T01:27:55.486Z,79.1
2016-05-03T01:28:05.329Z,79.2
2016-05-03T01:28:15.626Z,79.6
2016-05-03T01:28:25.657Z,79.7
2016-05-03T01:28:35.642Z,79.6
2016-05-03T01:28:45.644Z,79.4
2016-05-03T01:28:55.503Z,79.3
2016-05-03T01:29:05.503Z,79.7
2016-05-03T01:29:15.659Z,79.7
2016-05-03T01:29:25.659Z,79.6
2016-05-03T01:29:35.659Z,79.2
2016-05-03T01:29:45.662Z,79.6
2016-05-03T01:29:55.506Z,79.2
2016-05-03T01:30:05.662Z,79.3
2016-05-03T01:30:15.506Z,79.2
2016-05-03T01:30:25.678Z,79.6
2016-05-03T01:30:35.678Z,79.7
2016-05-03T01:30:45.696Z,79.6
2016-05-03T01:30:55.680Z,79.6
2016-05-03T01:31:05.539Z,79.5
2016-05-03T01:31:15.696Z,79.4
2016-05-03T01:31:25.680Z,79.7
2016-05-03T01:31:35.524Z,79.8
2016-05-03T01:31:45.684Z,79.3
2016-05-03T01:31:55.543Z,79.2
2016-05-03T01:32:05.684Z,79.7
2016-05-03T01:32:15.715Z,79.4
2016-05-03T01:32:25.700Z,79.7
2016-05-03T01:32:35.715Z,79.3
2016-05-03T01:32:45.702Z,79.4
2016-05-03T01:32:55.561Z,79.3
2016-05-03T01:33:05.717Z,79.4
2016-05-03T01:33:15.717Z,79.2
2016-05-03T01:33:25.717Z,79.6
2016-05-03T01:33:35.561Z,79.3
2016-05-03T01:33:45.564Z,79.3
2016-05-03T01:33:55.720Z,79.3
2016-05-03T01:34:05.720Z,79.2
2016-05-03T01:34:15.720Z,79.6
2016-05-03T01:34:25.580Z,79.4
2016-05-03T01:34:35.736Z,79.6
2016-05-03T01:34:45.598Z,79.6
2016-05-03T01:34:55.739Z,79.7
2016-05-03T01:35:05.739Z,79.3
2016-05-03T01:35:15.739Z,79.6
2016-05-03T01:35:25.739Z,79.4
2016-05-03T01:35:35.755Z,79.4
2016-05-03T01:35:45.757Z,79.6
2016-05-03T01:35:55.757Z,79.4
2016-05-03T01:36:05.757Z,79.5
2016-05-03T01:36:15.600Z,79.7
2016-05-03T01:36:25.772Z,79.6
2016-05-03T01:36:35.757Z,79.5
2016-05-03T01:36:45.775Z,79.5
2016-05-03T01:36:56.510Z,79
2016-05-03T01:37:05.775Z,79.3
2016-05-03T01:37:15.463Z,79.3
2016-05-03T01:37:25.838Z,79.4
2016-05-03T01:37:36.025Z,79.4
2016-05-03T01:37:45.809Z,78.9
2016-05-03T01:37:55.638Z,78.9
2016-05-03T01:38:05.778Z,79.2
2016-05-03T01:38:15.778Z,79.1
2016-05-03T01:38:25.794Z,79.3
2016-05-03T01:38:35.794Z,79.2
2016-05-03T01:38:45.796Z,79.7
2016-05-03T01:38:55.796Z,79.5
2016-05-03T01:39:05.811Z,79.6
2016-05-03T01:39:15.811Z,79.3
2016-05-03T01:39:25.796Z,79.5
2016-05-03T01:39:35.811Z,79.7
2016-05-03T01:39:45.674Z,79.5
2016-05-03T01:39:55.814Z,79.7
2016-05-03T01:40:05.814Z,79.7
2016-05-03T01:40:15.814Z,79.6
2016-05-03T01:40:25.814Z,79.7
2016-05-03T01:40:35.674Z,79.3
2016-05-03T01:40:45.833Z,79.7
2016-05-03T01:40:55.677Z,79.7
2016-05-03T01:41:05.833Z,79.6
2016-05-03T01:41:15.833Z,79.6
2016-05-03T01:41:25.692Z,79.3
2016-05-03T01:41:35.833Z,79.3
2016-05-03T01:41:45.852Z,79.3
2016-05-03T01:41:55.836Z,79.3
2016-05-03T01:42:05.852Z,79.4
2016-05-03T01:42:15.852Z,79.2
2016-05-03T01:42:25.852Z,79.2
2016-05-03T01:42:35.852Z,79.4
2016-05-03T01:42:45.854Z,79.5
2016-05-03T01:42:55.869Z,79.4
2016-05-03T01:43:05.713Z,79.7
2016-05-03T01:43:15.854Z,79.4
2016-05-03T01:43:25.869Z,79.6
2016-05-03T01:43:35.869Z,79.7
2016-05-03T01:43:45.919Z,79.6
2016-05-03T01:43:55.872Z,79.5
2016-05-03T01:44:05.872Z,79.6
2016-05-03T01:44:15.872Z,79.5
2016-05-03T01:44:25.575Z,79.4
2016-05-03T01:44:35.732Z,79.7
2016-05-03T01:44:45.890Z,79.5
2016-05-03T01:44:55.890Z,79.3
2016-05-03T01:45:05.890Z,79.3
2016-05-03T01:45:15.890Z,79.3
2016-05-03T01:45:25.906Z,79.4
2016-05-03T01:45:35.890Z,79.4
2016-05-03T01:45:45.909Z,79.4
2016-05-03T01:45:55.909Z,79.4
2016-05-03T01:46:05.752Z,79.4
2016-05-03T01:46:15.909Z,79.5
2016-05-03T01:46:25.924Z,79.3
2016-05-03T01:46:35.924Z,79.2
2016-05-03T01:46:45.927Z,79.1
2016-05-03T01:46:55.927Z,79.1
2016-05-03T01:47:05.927Z,79.2
2016-05-03T01:47:15.927Z,79.1
2016-05-03T01:47:25.912Z,79.2
2016-05-03T01:47:35.927Z,79
2016-05-03T01:47:45.930Z,79.2
2016-05-03T01:47:55.930Z,79.1
2016-05-03T01:48:05.946Z,79.3
2016-05-03T01:48:15.946Z,79.2
2016-05-03T01:48:25.930Z,79
2016-05-03T01:48:35.946Z,79.4
2016-05-03T01:48:45.807Z,79.3
2016-05-03T01:48:55.948Z,79.1
2016-05-03T01:49:05.948Z,79.2
2016-05-03T01:49:16.057Z,79.2
2016-05-03T01:49:25.948Z,79.3
2016-05-03T01:49:35.963Z,79.3
2016-05-03T01:49:45.966Z,79.3
2016-05-03T01:49:55.966Z,79.3
2016-05-03T01:50:05.966Z,79.8
2016-05-03T01:50:15.966Z,79.7
2016-05-03T01:50:25.966Z,79.7
2016-05-03T01:50:35.982Z,79.6
2016-05-03T01:50:45.969Z,79.6
2016-05-03T01:50:55.985Z,79.7
2016-05-03T01:51:05.829Z,79.5
2016-05-03T01:51:16.001Z,79.8
2016-05-03T01:51:25.985Z,79.6
2016-05-03T01:51:36.016Z,79.8
2016-05-03T01:51:45.987Z,79.7
2016-05-03T01:51:56.065Z,79.8
2016-05-03T01:52:07.268Z,79.6
2016-05-03T01:52:16.440Z,79.6
2016-05-03T01:52:26.018Z,79.6
2016-05-03T01:52:35.846Z,79.7
2016-05-03T01:52:45.850Z,79.8
2016-05-03T01:52:56.007Z,79.7
2016-05-03T01:53:05.866Z,79.6
2016-05-03T01:53:16.007Z,79.6
2016-05-03T01:53:26.007Z,79.5
2016-05-03T01:53:36.038Z,79.6
2016-05-03T01:53:46.024Z,79.4
2016-05-03T01:53:56.024Z,79.4
2016-05-03T01:54:06.024Z,79.5
2016-05-03T01:54:16.040Z,79.6
2016-05-03T01:54:26.040Z,79.6
2016-05-03T01:54:36.040Z,79.6
2016-05-03T01:54:46.042Z,79.1
2016-05-03T01:54:55.886Z,79.6
2016-05-03T01:55:06.042Z,79.8
2016-05-03T01:55:16.042Z,79.7
2016-05-03T01:55:26.058Z,79.7
2016-05-03T01:55:36.058Z,79.4
2016-05-03T01:55:45.905Z,79.6
2016-05-03T01:55:55.905Z,79.4
2016-05-03T01:56:06.062Z,79.8
2016-05-03T01:56:16.062Z,80
2016-05-03T01:56:26.062Z,79.9
2016-05-03T01:56:35.921Z,79.9
2016-05-03T01:56:46.079Z,79.8
2016-05-03T01:56:56.079Z,79.7
2016-05-03T01:57:06.079Z,79.8
2016-05-03T01:57:16.079Z,79.7
2016-05-03T01:57:26.079Z,79.9
2016-05-03T01:57:35.923Z,79.7
2016-05-03T01:57:46.081Z,79.8
2016-05-03T01:57:56.081Z,79.8
2016-05-03T01:58:06.081Z,79.8
2016-05-03T01:58:16.097Z,79.8
2016-05-03T01:58:26.097Z,79.8
2016-05-03T01:58:36.128Z,79.9
2016-05-03T01:58:46.100Z,79.9
2016-05-03T01:58:56.100Z,79.8
2016-05-03T01:59:06.100Z,80
2016-05-03T01:59:15.944Z,79.9
2016-05-03T01:59:26.115Z,80
2016-05-03T01:59:36.100Z,79.9
2016-05-03T01:59:46.118Z,80
2016-05-03T01:59:56.118Z,79.7
2016-05-03T02:00:06.118Z,80.1
2016-05-03T02:00:16.118Z,79.8
2016-05-03T02:00:26.118Z,79.9
2016-05-03T02:00:35.962Z,79.7
2016-05-03T02:00:46.121Z,79.9
2016-05-03T02:00:56.121Z,79.8
2016-05-03T02:01:06.153Z,79.7
2016-05-03T02:01:16.137Z,79.8
2016-05-03T02:01:26.137Z,79.8
2016-05-03T02:01:36.137Z,79.8
2016-05-03T02:01:46.139Z,79.8
2016-05-03T02:01:56.139Z,79.8
2016-05-03T02:02:06.139Z,79.9
2016-05-03T02:02:16.139Z,79.7
2016-05-03T02:02:26.155Z,80
2016-05-03T02:02:35.998Z,79.7
2016-05-03T02:02:46.158Z,79.7
2016-05-03T02:02:56.017Z,79.7
2016-05-03T02:03:06.173Z,79.8
2016-05-03T02:03:16.173Z,79.8
2016-05-03T02:03:26.173Z,79.8
2016-05-03T02:03:36.173Z,80
2016-05-03T02:03:46.176Z,80
2016-05-03T02:03:56.051Z,80
2016-05-03T02:04:06.176Z,79.8
2016-05-03T02:04:16.176Z,79.7
2016-05-03T02:04:26.192Z,79.8
2016-05-03T02:04:36.020Z,80
2016-05-03T02:04:46.195Z,80.1
2016-05-03T02:04:56.195Z,79.6
2016-05-03T02:05:06.195Z,80.2
2016-05-03T02:05:16.195Z,80.3
2016-05-03T02:05:26.195Z,80.2
2016-05-03T02:05:36.211Z,80.2
2016-05-03T02:05:46.214Z,80.2
2016-05-03T02:05:56.214Z,80
2016-05-03T02:06:06.214Z,80.1
2016-05-03T02:06:16.214Z,80.2
2016-05-03T02:06:26.214Z,79.9
2016-05-03T02:06:36.214Z,80
2016-05-03T02:06:46.215Z,80.1
2016-05-03T02:06:56.215Z,79.9
2016-05-03T02:07:07.715Z,80
2016-05-03T02:07:16.230Z,80
2016-05-03T02:07:26.246Z,80.1
2016-05-03T02:07:37.980Z,80.1
2016-05-03T02:07:46.234Z,80.1
2016-05-03T02:07:56.234Z,80
2016-05-03T02:08:06.250Z,80.1
2016-05-03T02:08:16.234Z,80.2
2016-05-03T02:08:26.250Z,80.1
2016-05-03T02:08:36.250Z,80
2016-05-03T02:08:46.252Z,80.2
2016-05-03T02:08:56.252Z,80.3
2016-05-03T02:09:06.252Z,80.3
2016-05-03T02:09:16.252Z,80.7
2016-05-03T02:09:26.267Z,80.4
2016-05-03T02:09:36.267Z,80.7
2016-05-03T02:09:46.145Z,80.5
2016-05-03T02:09:56.270Z,80.6
2016-05-03T02:10:06.114Z,80.4
2016-05-03T02:10:16.114Z,80.6
2016-05-03T02:10:26.270Z,80.5
2016-05-03T02:10:36.270Z,80.5
2016-05-03T02:10:46.289Z,80.3
2016-05-03T02:10:56.305Z,80.4
2016-05-03T02:11:06.305Z,80.4
2016-05-03T02:11:16.320Z,80.4
2016-05-03T02:11:26.305Z,80.5
2016-05-03T02:11:36.289Z,80.4
2016-05-03T02:11:46.291Z,80.5
2016-05-03T02:11:56.307Z,80.6
2016-05-03T02:12:05.994Z,80.3
2016-05-03T02:12:16.307Z,80
2016-05-03T02:12:26.307Z,80.2
2016-05-03T02:12:36.307Z,80.1
2016-05-03T02:12:46.310Z,80
2016-05-03T02:12:56.169Z,80
2016-05-03T02:13:06.310Z,80.2
2016-05-03T02:13:16.325Z,80.2
2016-05-03T02:13:26.310Z,80.1
2016-05-03T02:13:36.325Z,80
2016-05-03T02:13:46.328Z,79.9
2016-05-03T02:13:56.328Z,80